Koeimaru — JD3362 — position and weather

sailwx.info

Track history (hours):
 
Tides and Currents Weather Stations Pressure Air Temp Water Temp Dewpoint Dewpoint Depression Visibility Wind Speed Wind Dir Waves Ship Positions

Koeimaru

Last reported at 2017-Nov-20 00:29 UTC. Time now 2017-Nov-21 20:58 UTC.
Position N 34°06' E 135°02'.

Length 64 m; draft 4 m.

Type: Cargo ship. MMSI: 431003512.

Date/timePositionNaut miles runAvg speedWind from/ knotsBaromVisibWave heightAir tempDewpointWater temp
2017-Nov-20 00:29N 34°06' E 135°02'510.6
2017-Nov-20 00:00N 34°11' E 135°02'510.4
2017-Nov-19 23:30N 34°16' E 135°03'1010.3
2017-Nov-19 22:33N 34°24' E 135°09'110.8
2017-Nov-19 22:28N 34°25' E 135°10'510.6
2017-Nov-19 22:00N 34°28' E 135°14'510.7
2017-Nov-19 21:30N 34°31' E 135°19'4 8.1
2017-Nov-19 20:59N 34°31' E 135°24'  
2017-Nov-17 09:39N 34°32' E 135°24'210.6
2017-Nov-17 09:30N 34°33' E 135°23'5 9.8
2017-Nov-17 09:00N 34°38' E 135°24'2 3.9
2017-Nov-17 08:28N 34°40' E 135°26'0 0.0
2017-Nov-17 07:57N 34°40' E 135°26'0 0.0
2017-Nov-17 07:29N 34°40' E 135°26'0 0.0
2017-Nov-17 07:00N 34°40' E 135°26'0 0.0
2017-Nov-17 06:24N 34°40' E 135°26'0 0.0
2017-Nov-17 06:00N 34°40' E 135°26'0 0.0
2017-Nov-17 05:30N 34°40' E 135°26'0 0.0
2017-Nov-17 05:00N 34°40' E 135°26'0 0.0
2017-Nov-17 04:30N 34°40' E 135°26'0 0.0
2017-Nov-17 04:00N 34°40' E 135°26'0 0.0
2017-Nov-17 03:30N 34°40' E 135°26'0 0.0
2017-Nov-17 03:00N 34°40' E 135°26'0 0.0
2017-Nov-17 02:29N 34°40' E 135°26'0 0.0
2017-Nov-17 02:00N 34°40' E 135°26'0 0.0
2017-Nov-17 01:29N 34°40' E 135°26'0 0.0
2017-Nov-17 00:59N 34°40' E 135°26'0 0.0
2017-Nov-17 00:30N 34°40' E 135°26'0 0.0
2017-Nov-16 23:57N 34°40' E 135°26'0 0.0
2017-Nov-16 22:46N 34°40' E 135°26'1 5.4
2017-Nov-16 22:30N 34°39' E 135°24'4 7.7
2017-Nov-16 22:00N 34°37' E 135°21'5 9.5
2017-Nov-16 21:30N 34°34' E 135°15'510.1
2017-Nov-16 21:00N 34°34' E 135°09'510.3
2017-Nov-16 20:30N 34°36' E 135°03'5 0.1
2017-Nov-15 02:40N 34°37' E 134°57'4 9.0
2017-Nov-15 02:14N 34°37' E 135°01'2 8.3
2017-Nov-15 02:00N 34°36' E 135°03'510.5
2017-Nov-15 01:30N 34°36' E 135°10'611.4
2017-Nov-15 00:57N 34°38' E 135°17'511.0
2017-Nov-15 00:30N 34°38' E 135°23'3 4.8
2017-Nov-14 23:58N 34°40' E 135°26'0 0.0
2017-Nov-14 23:30N 34°40' E 135°26'0 0.0
2017-Nov-14 22:59N 34°40' E 135°26'0 0.0
2017-Nov-14 22:30N 34°40' E 135°26'0 0.0
2017-Nov-14 22:00N 34°40' E 135°26'0 0.0
2017-Nov-14 21:30N 34°40' E 135°26'0 0.0
2017-Nov-14 21:00N 34°40' E 135°26'0 0.0
2017-Nov-14 20:31N 34°40' E 135°26'0 0.0
2017-Nov-14 20:01N 34°40' E 135°26'0 0.0
2017-Nov-14 19:31N 34°40' E 135°26'0 0.0
2017-Nov-14 19:00N 34°40' E 135°26'0 0.0
2017-Nov-14 18:30N 34°40' E 135°26'0 0.0
2017-Nov-14 18:00N 34°40' E 135°26'0 0.0
2017-Nov-14 17:30N 34°40' E 135°26'0 0.0
2017-Nov-14 17:00N 34°40' E 135°26'0 0.0
2017-Nov-14 16:30N 34°40' E 135°26'0 0.0
2017-Nov-14 16:00N 34°40' E 135°26'2 4.0
2017-Nov-14 15:30N 34°38' E 135°24'510.0
2017-Nov-14 15:00N 34°37' E 135°18'510.5
2017-Nov-14 14:30N 34°36' E 135°12'511.0
2017-Nov-14 14:00N 34°35' E 135°05'17 0.5
2017-Nov-13 02:00N 34°35' E 135°26'0 0.0
2017-Nov-13 01:30N 34°35' E 135°26'0 0.0
2017-Nov-13 01:00N 34°35' E 135°26'0 0.0
2017-Nov-13 00:30N 34°35' E 135°26'0 0.0
2017-Nov-13 00:00N 34°35' E 135°26'0 0.0
2017-Nov-12 23:30N 34°35' E 135°26'0 0.3
2017-Nov-12 23:00N 34°35' E 135°26'0 0.4
2017-Nov-12 22:30N 34°35' E 135°25'0 0.0
2017-Nov-12 22:00N 34°35' E 135°25'0 0.0
2017-Nov-12 21:30N 34°35' E 135°25'0 0.0
2017-Nov-12 20:58N 34°35' E 135°25'0 0.0
2017-Nov-12 20:23N 34°35' E 135°25'0 0.0
2017-Nov-12 19:57N 34°35' E 135°25'0 0.0
2017-Nov-12 19:30N 34°35' E 135°25'0 0.0
2017-Nov-12 19:00N 34°35' E 135°25'0 0.0
2017-Nov-12 18:30N 34°35' E 135°25'0 0.0
2017-Nov-12 18:00N 34°35' E 135°25'0 0.0
2017-Nov-12 17:30N 34°35' E 135°25'0 0.0
2017-Nov-12 17:00N 34°35' E 135°25'0 0.0
2017-Nov-12 16:30N 34°35' E 135°25'0 0.0
2017-Nov-12 16:00N 34°35' E 135°25'0 0.0
2017-Nov-12 15:30N 34°35' E 135°25'0 0.0
2017-Nov-12 14:59N 34°35' E 135°25'0 0.0
2017-Nov-12 14:27N 34°35' E 135°25'0 0.0
2017-Nov-12 14:00N 34°35' E 135°25'0 0.0
2017-Nov-12 13:28N 34°35' E 135°25'0 0.0
2017-Nov-12 13:00N 34°35' E 135°25'0 0.0
2017-Nov-12 12:28N 34°35' E 135°25'2 4.6
2017-Nov-12 12:00N 34°36' E 135°23'510.6
2017-Nov-12 11:30N 34°33' E 135°19'510.8
2017-Nov-12 11:00N 34°29' E 135°14'  
Track history (hours):
 
Tides and Currents Weather Stations Pressure Air Temp Water Temp Dewpoint Dewpoint Depression Visibility Wind Speed Wind Dir Waves Ship Positions

Koeimaru

Last reported at 2017-Nov-20 00:29 UTC. Time now 2017-Nov-21 20:58 UTC.
Position N 34°06' E 135°02'.

Length 64 m; draft 4 m.

Type: Cargo ship. MMSI: 431003512.

Date/timePositionNaut miles runAvg speedWind from/ knotsBaromVisibWave heightAir tempDewpointWater temp
2017-Nov-20 00:29N 34°06' E 135°02'510.6
2017-Nov-20 00:00N 34°11' E 135°02'510.4
2017-Nov-19 23:30N 34°16' E 135°03'1010.3
2017-Nov-19 22:33N 34°24' E 135°09'110.8
2017-Nov-19 22:28N 34°25' E 135°10'510.6
2017-Nov-19 22:00N 34°28' E 135°14'510.7
2017-Nov-19 21:30N 34°31' E 135°19'4 8.1
2017-Nov-19 20:59N 34°31' E 135°24'  
2017-Nov-17 09:39N 34°32' E 135°24'210.6
2017-Nov-17 09:30N 34°33' E 135°23'5 9.8
2017-Nov-17 09:00N 34°38' E 135°24'2 3.9
2017-Nov-17 08:28N 34°40' E 135°26'0 0.0
2017-Nov-17 07:57N 34°40' E 135°26'0 0.0
2017-Nov-17 07:29N 34°40' E 135°26'0 0.0
2017-Nov-17 07:00N 34°40' E 135°26'0 0.0
2017-Nov-17 06:24N 34°40' E 135°26'0 0.0
2017-Nov-17 06:00N 34°40' E 135°26'0 0.0
2017-Nov-17 05:30N 34°40' E 135°26'0 0.0
2017-Nov-17 05:00N 34°40' E 135°26'0 0.0
2017-Nov-17 04:30N 34°40' E 135°26'0 0.0
2017-Nov-17 04:00N 34°40' E 135°26'0 0.0
2017-Nov-17 03:30N 34°40' E 135°26'0 0.0
2017-Nov-17 03:00N 34°40' E 135°26'0 0.0
2017-Nov-17 02:29N 34°40' E 135°26'0 0.0
2017-Nov-17 02:00N 34°40' E 135°26'0 0.0
2017-Nov-17 01:29N 34°40' E 135°26'0 0.0
2017-Nov-17 00:59N 34°40' E 135°26'0 0.0
2017-Nov-17 00:30N 34°40' E 135°26'0 0.0
2017-Nov-16 23:57N 34°40' E 135°26'0 0.0
2017-Nov-16 22:46N 34°40' E 135°26'1 5.4
2017-Nov-16 22:30N 34°39' E 135°24'4 7.7
2017-Nov-16 22:00N 34°37' E 135°21'5 9.5
2017-Nov-16 21:30N 34°34' E 135°15'510.1
2017-Nov-16 21:00N 34°34' E 135°09'510.3
2017-Nov-16 20:30N 34°36' E 135°03'5 0.1
2017-Nov-15 02:40N 34°37' E 134°57'4 9.0
2017-Nov-15 02:14N 34°37' E 135°01'2 8.3
2017-Nov-15 02:00N 34°36' E 135°03'510.5
2017-Nov-15 01:30N 34°36' E 135°10'611.4
2017-Nov-15 00:57N 34°38' E 135°17'511.0
2017-Nov-15 00:30N 34°38' E 135°23'3 4.8
2017-Nov-14 23:58N 34°40' E 135°26'0 0.0
2017-Nov-14 23:30N 34°40' E 135°26'0 0.0
2017-Nov-14 22:59N 34°40' E 135°26'0 0.0
2017-Nov-14 22:30N 34°40' E 135°26'0 0.0
2017-Nov-14 22:00N 34°40' E 135°26'0 0.0
2017-Nov-14 21:30N 34°40' E 135°26'0 0.0
2017-Nov-14 21:00N 34°40' E 135°26'0 0.0
2017-Nov-14 20:31N 34°40' E 135°26'0 0.0
2017-Nov-14 20:01N 34°40' E 135°26'0 0.0
2017-Nov-14 19:31N 34°40' E 135°26'0 0.0
2017-Nov-14 19:00N 34°40' E 135°26'0 0.0
2017-Nov-14 18:30N 34°40' E 135°26'0 0.0
2017-Nov-14 18:00N 34°40' E 135°26'0 0.0
2017-Nov-14 17:30N 34°40' E 135°26'0 0.0
2017-Nov-14 17:00N 34°40' E 135°26'0 0.0
2017-Nov-14 16:30N 34°40' E 135°26'0 0.0
2017-Nov-14 16:00N 34°40' E 135°26'2 4.0
2017-Nov-14 15:30N 34°38' E 135°24'510.0
2017-Nov-14 15:00N 34°37' E 135°18'510.5
2017-Nov-14 14:30N 34°36' E 135°12'511.0
2017-Nov-14 14:00N 34°35' E 135°05'17 0.5
2017-Nov-13 02:00N 34°35' E 135°26'0 0.0
2017-Nov-13 01:30N 34°35' E 135°26'0 0.0
2017-Nov-13 01:00N 34°35' E 135°26'0 0.0
2017-Nov-13 00:30N 34°35' E 135°26'0 0.0
2017-Nov-13 00:00N 34°35' E 135°26'0 0.0
2017-Nov-12 23:30N 34°35' E 135°26'0 0.3
2017-Nov-12 23:00N 34°35' E 135°26'0 0.4
2017-Nov-12 22:30N 34°35' E 135°25'0 0.0
2017-Nov-12 22:00N 34°35' E 135°25'0 0.0
2017-Nov-12 21:30N 34°35' E 135°25'0 0.0
2017-Nov-12 20:58N 34°35' E 135°25'0 0.0
2017-Nov-12 20:23N 34°35' E 135°25'0 0.0
2017-Nov-12 19:57N 34°35' E 135°25'0 0.0
2017-Nov-12 19:30N 34°35' E 135°25'0 0.0
2017-Nov-12 19:00N 34°35' E 135°25'0 0.0
2017-Nov-12 18:30N 34°35' E 135°25'0 0.0
2017-Nov-12 18:00N 34°35' E 135°25'0 0.0
2017-Nov-12 17:30N 34°35' E 135°25'0 0.0
2017-Nov-12 17:00N 34°35' E 135°25'0 0.0
2017-Nov-12 16:30N 34°35' E 135°25'0 0.0
2017-Nov-12 16:00N 34°35' E 135°25'0 0.0
2017-Nov-12 15:30N 34°35' E 135°25'0 0.0
2017-Nov-12 14:59N 34°35' E 135°25'0 0.0
2017-Nov-12 14:27N 34°35' E 135°25'0 0.0
2017-Nov-12 14:00N 34°35' E 135°25'0 0.0
2017-Nov-12 13:28N 34°35' E 135°25'0 0.0
2017-Nov-12 13:00N 34°35' E 135°25'0 0.0
2017-Nov-12 12:28N 34°35' E 135°25'2 4.6
2017-Nov-12 12:00N 34°36' E 135°23'510.6
2017-Nov-12 11:30N 34°33' E 135°19'510.8
2017-Nov-12 11:00N 34°29' E 135°14'  

Dump ship's entire track history